sensor_id;sensor_type;location;lat;lon;timestamp;P1;durP1;ratioP1;P2;durP2;ratioP2
51298;SDS011;37382;45.192;9.790;2024-02-21T00:01:43;76.38;;;47.60;;
51298;SDS011;37382;45.192;9.790;2024-02-21T00:04:10;76.93;;;49.22;;
51298;SDS011;37382;45.192;9.790;2024-02-21T00:06:38;68.88;;;46.55;;
51298;SDS011;37382;45.192;9.790;2024-02-21T00:09:05;79.80;;;50.33;;
51298;SDS011;37382;45.192;9.790;2024-02-21T00:11:32;77.55;;;49.10;;
51298;SDS011;37382;45.192;9.790;2024-02-21T00:14:00;78.68;;;51.03;;
51298;SDS011;37382;45.192;9.790;2024-02-21T00:16:28;81.05;;;50.67;;
51298;SDS011;37382;45.192;9.790;2024-02-21T00:18:55;75.95;;;49.65;;
51298;SDS011;37382;45.192;9.790;2024-02-21T00:21:23;115.03;;;60.20;;
51298;SDS011;37382;45.192;9.790;2024-02-21T00:23:50;95.07;;;58.58;;
51298;SDS011;37382;45.192;9.790;2024-02-21T00:26:18;93.65;;;57.38;;
51298;SDS011;37382;45.192;9.790;2024-02-21T00:28:45;84.95;;;54.08;;
51298;SDS011;37382;45.192;9.790;2024-02-21T00:31:13;76.55;;;46.53;;
51298;SDS011;37382;45.192;9.790;2024-02-21T00:33:40;72.78;;;45.88;;
51298;SDS011;37382;45.192;9.790;2024-02-21T00:36:08;71.50;;;45.30;;
51298;SDS011;37382;45.192;9.790;2024-02-21T00:38:36;68.68;;;45.55;;
51298;SDS011;37382;45.192;9.790;2024-02-21T00:41:03;61.92;;;41.40;;
51298;SDS011;37382;45.192;9.790;2024-02-21T00:43:31;67.22;;;42.55;;
51298;SDS011;37382;45.192;9.790;2024-02-21T00:45:58;61.53;;;31.70;;
51298;SDS011;37382;45.192;9.790;2024-02-21T00:48:26;44.50;;;32.35;;
51298;SDS011;37382;45.192;9.790;2024-02-21T00:50:53;50.05;;;34.45;;
51298;SDS011;37382;45.192;9.790;2024-02-21T00:53:20;51.10;;;33.50;;
51298;SDS011;37382;45.192;9.790;2024-02-21T00:55:51;74.30;;;47.58;;
51298;SDS011;37382;45.192;9.790;2024-02-21T00:58:19;76.85;;;49.30;;
51298;SDS011;37382;45.192;9.790;2024-02-21T01:00:46;85.75;;;54.45;;
51298;SDS011;37382;45.192;9.790;2024-02-21T01:03:14;86.78;;;53.40;;
51298;SDS011;37382;45.192;9.790;2024-02-21T01:05:41;84.75;;;53.83;;
51298;SDS011;37382;45.192;9.790;2024-02-21T01:08:08;84.65;;;53.47;;
51298;SDS011;37382;45.192;9.790;2024-02-21T01:10:36;81.97;;;53.17;;
51298;SDS011;37382;45.192;9.790;2024-02-21T01:13:03;90.75;;;54.20;;
51298;SDS011;37382;45.192;9.790;2024-02-21T01:15:30;86.82;;;51.80;;
51298;SDS011;37382;45.192;9.790;2024-02-21T01:17:58;82.57;;;51.80;;
51298;SDS011;37382;45.192;9.790;2024-02-21T01:20:25;80.85;;;52.33;;
51298;SDS011;37382;45.192;9.790;2024-02-21T01:22:53;86.45;;;53.10;;
51298;SDS011;37382;45.192;9.790;2024-02-21T01:25:20;86.00;;;52.75;;
51298;SDS011;37382;45.192;9.790;2024-02-21T01:27:47;89.93;;;55.22;;
51298;SDS011;37382;45.192;9.790;2024-02-21T01:30:15;93.80;;;55.78;;
51298;SDS011;37382;45.192;9.790;2024-02-21T01:32:42;87.43;;;55.83;;
51298;SDS011;37382;45.192;9.790;2024-02-21T01:35:09;101.43;;;59.25;;
51298;SDS011;37382;45.192;9.790;2024-02-21T01:37:37;78.75;;;50.80;;
51298;SDS011;37382;45.192;9.790;2024-02-21T01:40:05;65.93;;;43.33;;
51298;SDS011;37382;45.192;9.790;2024-02-21T01:42:33;52.88;;;37.55;;
51298;SDS011;37382;45.192;9.790;2024-02-21T01:45:05;57.22;;;40.95;;
51298;SDS011;37382;45.192;9.790;2024-02-21T01:47:33;55.80;;;40.05;;
51298;SDS011;37382;45.192;9.790;2024-02-21T01:50:01;48.45;;;35.75;;
51298;SDS011;37382;45.192;9.790;2024-02-21T01:52:29;53.88;;;36.50;;
51298;SDS011;37382;45.192;9.790;2024-02-21T01:54:57;52.13;;;36.90;;
51298;SDS011;37382;45.192;9.790;2024-02-21T01:57:25;53.20;;;37.17;;
51298;SDS011;37382;45.192;9.790;2024-02-21T01:59:53;56.10;;;37.95;;
51298;SDS011;37382;45.192;9.790;2024-02-21T02:02:20;54.92;;;39.10;;
51298;SDS011;37382;45.192;9.790;2024-02-21T02:04:48;51.13;;;37.50;;
51298;SDS011;37382;45.192;9.790;2024-02-21T02:07:16;53.95;;;39.25;;
51298;SDS011;37382;45.192;9.790;2024-02-21T02:09:43;58.67;;;38.65;;
51298;SDS011;37382;45.192;9.790;2024-02-21T02:12:11;52.90;;;37.10;;
51298;SDS011;37382;45.192;9.790;2024-02-21T02:14:38;54.42;;;39.78;;
51298;SDS011;37382;45.192;9.790;2024-02-21T02:17:05;50.63;;;38.13;;
51298;SDS011;37382;45.192;9.790;2024-02-21T02:19:33;53.88;;;38.92;;
51298;SDS011;37382;45.192;9.790;2024-02-21T02:22:05;58.05;;;39.33;;
51298;SDS011;37382;45.192;9.790;2024-02-21T02:24:43;54.30;;;39.55;;
51298;SDS011;37382;45.192;9.790;2024-02-21T02:27:10;60.58;;;40.53;;
51298;SDS011;37382;45.192;9.790;2024-02-21T02:29:37;64.40;;;43.78;;
51298;SDS011;37382;45.192;9.790;2024-02-21T02:32:05;74.18;;;47.90;;
51298;SDS011;37382;45.192;9.790;2024-02-21T02:34:33;78.57;;;48.58;;
51298;SDS011;37382;45.192;9.790;2024-02-21T02:37:00;69.65;;;46.42;;
51298;SDS011;37382;45.192;9.790;2024-02-21T02:39:29;67.70;;;43.80;;
51298;SDS011;37382;45.192;9.790;2024-02-21T02:41:56;66.43;;;43.78;;
51298;SDS011;37382;45.192;9.790;2024-02-21T02:44:23;37.83;;;27.75;;
51298;SDS011;37382;45.192;9.790;2024-02-21T02:46:51;27.80;;;22.08;;
51298;SDS011;37382;45.192;9.790;2024-02-21T02:49:18;28.73;;;21.67;;
51298;SDS011;37382;45.192;9.790;2024-02-21T02:51:45;26.63;;;21.92;;
51298;SDS011;37382;45.192;9.790;2024-02-21T02:54:13;33.15;;;24.95;;
51298;SDS011;37382;45.192;9.790;2024-02-21T02:56:40;34.13;;;25.58;;
51298;SDS011;37382;45.192;9.790;2024-02-21T02:59:09;38.13;;;29.60;;
51298;SDS011;37382;45.192;9.790;2024-02-21T03:01:36;37.55;;;29.80;;
51298;SDS011;37382;45.192;9.790;2024-02-21T03:04:05;38.38;;;30.92;;
51298;SDS011;37382;45.192;9.790;2024-02-21T03:06:32;37.25;;;31.10;;
51298;SDS011;37382;45.192;9.790;2024-02-21T03:09:00;41.05;;;32.42;;
51298;SDS011;37382;45.192;9.790;2024-02-21T03:11:29;57.58;;;37.75;;
51298;SDS011;37382;45.192;9.790;2024-02-21T03:13:57;92.55;;;39.97;;
51298;SDS011;37382;45.192;9.790;2024-02-21T03:16:24;155.43;;;37.85;;
51298;SDS011;37382;45.192;9.790;2024-02-21T03:18:52;117.22;;;38.88;;
51298;SDS011;37382;45.192;9.790;2024-02-21T03:21:20;202.55;;;43.28;;
51298;SDS011;37382;45.192;9.790;2024-02-21T03:23:47;198.15;;;43.85;;
51298;SDS011;37382;45.192;9.790;2024-02-21T03:26:15;184.30;;;47.40;;
51298;SDS011;37382;45.192;9.790;2024-02-21T03:28:44;209.60;;;48.25;;
51298;SDS011;37382;45.192;9.790;2024-02-21T03:31:15;192.63;;;51.10;;
51298;SDS011;37382;45.192;9.790;2024-02-21T03:33:42;342.55;;;55.95;;
51298;SDS011;37382;45.192;9.790;2024-02-21T03:36:14;240.10;;;52.85;;
51298;SDS011;37382;45.192;9.790;2024-02-21T03:38:42;298.83;;;56.35;;
51298;SDS011;37382;45.192;9.790;2024-02-21T03:41:10;230.18;;;51.35;;
51298;SDS011;37382;45.192;9.790;2024-02-21T03:43:37;384.92;;;57.08;;
51298;SDS011;37382;45.192;9.790;2024-02-21T03:46:05;184.23;;;51.47;;
51298;SDS011;37382;45.192;9.790;2024-02-21T03:48:33;184.73;;;50.63;;
51298;SDS011;37382;45.192;9.790;2024-02-21T03:51:01;167.00;;;49.35;;
51298;SDS011;37382;45.192;9.790;2024-02-21T03:53:28;239.55;;;52.85;;
51298;SDS011;37382;45.192;9.790;2024-02-21T03:55:56;263.15;;;57.05;;
51298;SDS011;37382;45.192;9.790;2024-02-21T03:58:24;351.45;;;57.15;;
51298;SDS011;37382;45.192;9.790;2024-02-21T04:00:51;208.52;;;55.60;;
51298;SDS011;37382;45.192;9.790;2024-02-21T04:03:19;158.00;;;53.63;;
51298;SDS011;37382;45.192;9.790;2024-02-21T04:05:46;112.68;;;46.70;;
51298;SDS011;37382;45.192;9.790;2024-02-21T04:08:14;159.25;;;47.97;;
51298;SDS011;37382;45.192;9.790;2024-02-21T04:10:42;88.50;;;46.17;;
51298;SDS011;37382;45.192;9.790;2024-02-21T04:13:09;110.75;;;48.53;;
51298;SDS011;37382;45.192;9.790;2024-02-21T04:15:37;88.40;;;49.60;;
51298;SDS011;37382;45.192;9.790;2024-02-21T04:18:05;130.57;;;52.45;;
51298;SDS011;37382;45.192;9.790;2024-02-21T04:20:34;150.75;;;52.38;;
51298;SDS011;37382;45.192;9.790;2024-02-21T04:23:02;159.50;;;49.15;;
51298;SDS011;37382;45.192;9.790;2024-02-21T04:25:30;159.77;;;49.25;;
51298;SDS011;37382;45.192;9.790;2024-02-21T04:27:57;182.40;;;54.05;;
51298;SDS011;37382;45.192;9.790;2024-02-21T04:30:24;183.75;;;55.42;;
51298;SDS011;37382;45.192;9.790;2024-02-21T04:32:52;131.73;;;55.22;;
51298;SDS011;37382;45.192;9.790;2024-02-21T04:35:20;166.57;;;56.45;;
51298;SDS011;37382;45.192;9.790;2024-02-21T04:37:49;194.93;;;61.20;;
51298;SDS011;37382;45.192;9.790;2024-02-21T04:40:16;150.70;;;61.00;;
51298;SDS011;37382;45.192;9.790;2024-02-21T04:42:44;152.43;;;59.13;;
51298;SDS011;37382;45.192;9.790;2024-02-21T04:45:11;208.93;;;59.10;;
51298;SDS011;37382;45.192;9.790;2024-02-21T04:47:38;198.07;;;61.28;;
51298;SDS011;37382;45.192;9.790;2024-02-21T04:50:06;278.70;;;64.72;;
51298;SDS011;37382;45.192;9.790;2024-02-21T04:52:34;198.55;;;66.30;;
51298;SDS011;37382;45.192;9.790;2024-02-21T04:55:01;167.80;;;69.13;;
51298;SDS011;37382;45.192;9.790;2024-02-21T04:57:29;206.43;;;69.32;;
51298;SDS011;37382;45.192;9.790;2024-02-21T04:59:56;177.30;;;68.13;;
51298;SDS011;37382;45.192;9.790;2024-02-21T05:02:23;292.48;;;69.47;;
51298;SDS011;37382;45.192;9.790;2024-02-21T05:04:52;295.88;;;75.45;;
51298;SDS011;37382;45.192;9.790;2024-02-21T05:07:19;301.95;;;75.43;;
51298;SDS011;37382;45.192;9.790;2024-02-21T05:09:47;295.48;;;80.28;;
51298;SDS011;37382;45.192;9.790;2024-02-21T05:12:14;235.95;;;76.72;;
51298;SDS011;37382;45.192;9.790;2024-02-21T05:14:42;191.00;;;66.20;;
51298;SDS011;37382;45.192;9.790;2024-02-21T05:17:09;178.93;;;66.53;;
51298;SDS011;37382;45.192;9.790;2024-02-21T05:19:37;160.88;;;64.28;;
51298;SDS011;37382;45.192;9.790;2024-02-21T05:22:04;171.20;;;65.97;;
51298;SDS011;37382;45.192;9.790;2024-02-21T05:24:32;138.80;;;62.80;;
51298;SDS011;37382;45.192;9.790;2024-02-21T05:27:00;142.85;;;69.10;;
51298;SDS011;37382;45.192;9.790;2024-02-21T05:29:27;195.18;;;68.00;;
51298;SDS011;37382;45.192;9.790;2024-02-21T05:31:55;127.10;;;69.20;;
51298;SDS011;37382;45.192;9.790;2024-02-21T05:34:24;129.30;;;66.20;;
51298;SDS011;37382;45.192;9.790;2024-02-21T05:36:52;126.72;;;67.10;;
51298;SDS011;37382;45.192;9.790;2024-02-21T05:39:20;125.65;;;59.70;;
51298;SDS011;37382;45.192;9.790;2024-02-21T05:41:50;138.88;;;51.92;;
51298;SDS011;37382;45.192;9.790;2024-02-21T05:44:18;117.65;;;51.88;;
51298;SDS011;37382;45.192;9.790;2024-02-21T05:46:46;153.35;;;50.97;;
51298;SDS011;37382;45.192;9.790;2024-02-21T05:49:13;160.35;;;54.00;;
51298;SDS011;37382;45.192;9.790;2024-02-21T05:51:41;156.38;;;52.83;;
51298;SDS011;37382;45.192;9.790;2024-02-21T05:54:08;88.43;;;50.03;;
51298;SDS011;37382;45.192;9.790;2024-02-21T05:56:36;130.00;;;62.63;;
51298;SDS011;37382;45.192;9.790;2024-02-21T05:59:03;121.85;;;65.50;;
51298;SDS011;37382;45.192;9.790;2024-02-21T06:01:30;191.43;;;65.70;;
51298;SDS011;37382;45.192;9.790;2024-02-21T06:03:58;176.20;;;66.97;;
51298;SDS011;37382;45.192;9.790;2024-02-21T06:06:25;121.75;;;58.10;;
51298;SDS011;37382;45.192;9.790;2024-02-21T06:08:53;88.80;;;56.17;;
51298;SDS011;37382;45.192;9.790;2024-02-21T06:11:20;92.07;;;55.92;;
51298;SDS011;37382;45.192;9.790;2024-02-21T06:13:48;83.82;;;53.47;;
51298;SDS011;37382;45.192;9.790;2024-02-21T06:16:15;126.47;;;61.25;;
51298;SDS011;37382;45.192;9.790;2024-02-21T06:18:42;209.70;;;75.10;;
51298;SDS011;37382;45.192;9.790;2024-02-21T06:21:10;106.65;;;65.15;;
51298;SDS011;37382;45.192;9.790;2024-02-21T06:23:39;121.38;;;54.75;;
51298;SDS011;37382;45.192;9.790;2024-02-21T06:26:06;144.90;;;55.72;;
51298;SDS011;37382;45.192;9.790;2024-02-21T06:28:34;127.18;;;52.15;;
51298;SDS011;37382;45.192;9.790;2024-02-21T06:31:01;133.32;;;52.70;;
51298;SDS011;37382;45.192;9.790;2024-02-21T06:33:29;129.80;;;54.72;;
51298;SDS011;37382;45.192;9.790;2024-02-21T06:35:56;200.98;;;58.30;;
51298;SDS011;37382;45.192;9.790;2024-02-21T06:38:24;135.50;;;59.53;;
51298;SDS011;37382;45.192;9.790;2024-02-21T06:40:51;155.43;;;59.40;;
51298;SDS011;37382;45.192;9.790;2024-02-21T06:43:21;169.25;;;58.00;;
51298;SDS011;37382;45.192;9.790;2024-02-21T06:45:49;138.88;;;51.80;;
51298;SDS011;37382;45.192;9.790;2024-02-21T06:48:20;119.10;;;51.63;;
51298;SDS011;37382;45.192;9.790;2024-02-21T06:50:48;99.60;;;48.17;;
51298;SDS011;37382;45.192;9.790;2024-02-21T06:53:15;102.97;;;48.47;;
51298;SDS011;37382;45.192;9.790;2024-02-21T06:55:42;83.05;;;46.00;;
51298;SDS011;37382;45.192;9.790;2024-02-21T06:58:10;97.68;;;48.08;;
51298;SDS011;37382;45.192;9.790;2024-02-21T07:00:39;81.32;;;46.45;;
51298;SDS011;37382;45.192;9.790;2024-02-21T07:03:07;81.45;;;47.85;;
51298;SDS011;37382;45.192;9.790;2024-02-21T07:05:34;68.32;;;47.28;;
51298;SDS011;37382;45.192;9.790;2024-02-21T07:08:02;65.18;;;45.50;;
51298;SDS011;37382;45.192;9.790;2024-02-21T07:10:30;51.92;;;42.20;;
51298;SDS011;37382;45.192;9.790;2024-02-21T07:12:58;48.08;;;41.03;;
51298;SDS011;37382;45.192;9.790;2024-02-21T07:15:25;49.08;;;40.88;;
51298;SDS011;37382;45.192;9.790;2024-02-21T07:17:54;50.17;;;41.50;;
51298;SDS011;37382;45.192;9.790;2024-02-21T07:20:21;48.90;;;40.05;;
51298;SDS011;37382;45.192;9.790;2024-02-21T07:22:49;49.58;;;41.35;;
51298;SDS011;37382;45.192;9.790;2024-02-21T07:25:16;48.55;;;41.42;;
51298;SDS011;37382;45.192;9.790;2024-02-21T07:27:44;58.10;;;45.65;;
51298;SDS011;37382;45.192;9.790;2024-02-21T07:30:12;56.00;;;43.35;;
51298;SDS011;37382;45.192;9.790;2024-02-21T07:32:43;48.75;;;40.10;;
51298;SDS011;37382;45.192;9.790;2024-02-21T07:35:11;67.38;;;51.00;;
51298;SDS011;37382;45.192;9.790;2024-02-21T07:37:39;126.53;;;76.70;;
51298;SDS011;37382;45.192;9.790;2024-02-21T07:40:11;62.25;;;46.25;;
51298;SDS011;37382;45.192;9.790;2024-02-21T07:42:40;66.72;;;46.67;;
51298;SDS011;37382;45.192;9.790;2024-02-21T07:45:08;66.72;;;46.38;;
51298;SDS011;37382;45.192;9.790;2024-02-21T07:47:36;73.90;;;51.08;;
51298;SDS011;37382;45.192;9.790;2024-02-21T07:50:04;78.13;;;51.33;;
51298;SDS011;37382;45.192;9.790;2024-02-21T07:52:32;54.35;;;43.38;;
51298;SDS011;37382;45.192;9.790;2024-02-21T07:55:00;53.72;;;41.45;;
51298;SDS011;37382;45.192;9.790;2024-02-21T07:57:28;56.50;;;43.17;;
51298;SDS011;37382;45.192;9.790;2024-02-21T07:59:55;70.05;;;49.13;;
51298;SDS011;37382;45.192;9.790;2024-02-21T08:02:22;70.30;;;47.60;;
51298;SDS011;37382;45.192;9.790;2024-02-21T08:04:50;70.40;;;49.92;;
51298;SDS011;37382;45.192;9.790;2024-02-21T08:07:17;65.82;;;48.25;;
51298;SDS011;37382;45.192;9.790;2024-02-21T08:09:44;70.13;;;45.85;;
51298;SDS011;37382;45.192;9.790;2024-02-21T08:12:12;67.68;;;45.53;;
51298;SDS011;37382;45.192;9.790;2024-02-21T08:14:39;69.10;;;46.70;;
51298;SDS011;37382;45.192;9.790;2024-02-21T08:17:08;59.25;;;42.90;;
51298;SDS011;37382;45.192;9.790;2024-02-21T08:19:35;59.97;;;42.30;;
51298;SDS011;37382;45.192;9.790;2024-02-21T08:22:03;56.78;;;40.72;;
51298;SDS011;37382;45.192;9.790;2024-02-21T08:24:31;55.25;;;40.88;;
51298;SDS011;37382;45.192;9.790;2024-02-21T08:26:58;51.88;;;38.55;;
51298;SDS011;37382;45.192;9.790;2024-02-21T08:29:26;48.38;;;38.00;;
51298;SDS011;37382;45.192;9.790;2024-02-21T08:31:53;49.17;;;37.65;;
51298;SDS011;37382;45.192;9.790;2024-02-21T08:34:21;44.67;;;34.72;;
51298;SDS011;37382;45.192;9.790;2024-02-21T08:36:48;48.05;;;35.10;;
51298;SDS011;37382;45.192;9.790;2024-02-21T08:39:15;49.10;;;33.88;;
51298;SDS011;37382;45.192;9.790;2024-02-21T08:41:43;50.30;;;35.05;;
51298;SDS011;37382;45.192;9.790;2024-02-21T08:44:23;48.03;;;35.53;;
51298;SDS011;37382;45.192;9.790;2024-02-21T08:46:54;46.42;;;32.85;;
51298;SDS011;37382;45.192;9.790;2024-02-21T08:49:21;54.08;;;33.42;;
51298;SDS011;37382;45.192;9.790;2024-02-21T08:51:49;55.40;;;34.40;;
51298;SDS011;37382;45.192;9.790;2024-02-21T08:54:16;45.05;;;31.77;;
51298;SDS011;37382;45.192;9.790;2024-02-21T08:56:44;46.10;;;31.33;;
51298;SDS011;37382;45.192;9.790;2024-02-21T08:59:11;48.08;;;31.13;;
51298;SDS011;37382;45.192;9.790;2024-02-21T09:01:39;48.28;;;31.92;;
51298;SDS011;37382;45.192;9.790;2024-02-21T09:04:06;45.33;;;33.08;;
51298;SDS011;37382;45.192;9.790;2024-02-21T09:06:34;52.67;;;35.90;;
51298;SDS011;37382;45.192;9.790;2024-02-21T09:09:06;58.08;;;37.80;;
51298;SDS011;37382;45.192;9.790;2024-02-21T09:11:35;55.03;;;38.17;;
51298;SDS011;37382;45.192;9.790;2024-02-21T09:14:02;58.67;;;39.92;;
51298;SDS011;37382;45.192;9.790;2024-02-21T09:16:31;68.65;;;43.95;;
51298;SDS011;37382;45.192;9.790;2024-02-21T09:19:00;69.07;;;43.28;;
51298;SDS011;37382;45.192;9.790;2024-02-21T09:21:28;66.55;;;42.45;;
51298;SDS011;37382;45.192;9.790;2024-02-21T09:23:55;61.70;;;40.42;;
51298;SDS011;37382;45.192;9.790;2024-02-21T09:26:26;66.93;;;42.77;;
51298;SDS011;37382;45.192;9.790;2024-02-21T09:28:54;57.63;;;38.25;;
51298;SDS011;37382;45.192;9.790;2024-02-21T09:31:21;58.67;;;38.00;;
51298;SDS011;37382;45.192;9.790;2024-02-21T09:33:49;57.83;;;37.03;;
51298;SDS011;37382;45.192;9.790;2024-02-21T09:36:16;53.35;;;36.40;;
51298;SDS011;37382;45.192;9.790;2024-02-21T09:38:44;58.65;;;37.50;;
51298;SDS011;37382;45.192;9.790;2024-02-21T09:41:15;59.05;;;38.08;;
51298;SDS011;37382;45.192;9.790;2024-02-21T09:43:50;63.50;;;38.45;;
51298;SDS011;37382;45.192;9.790;2024-02-21T09:51:52;66.10;;;43.40;;
51298;SDS011;37382;45.192;9.790;2024-02-21T09:54:22;72.07;;;45.13;;
51298;SDS011;37382;45.192;9.790;2024-02-21T09:56:50;79.53;;;48.05;;
51298;SDS011;37382;45.192;9.790;2024-02-21T09:59:17;75.60;;;48.90;;
51298;SDS011;37382;45.192;9.790;2024-02-21T10:01:45;84.80;;;49.80;;
51298;SDS011;37382;45.192;9.790;2024-02-21T10:04:17;70.78;;;48.17;;
51298;SDS011;37382;45.192;9.790;2024-02-21T10:06:46;76.93;;;48.03;;
51298;SDS011;37382;45.192;9.790;2024-02-21T10:09:23;91.32;;;58.28;;
51298;SDS011;37382;45.192;9.790;2024-02-21T10:12:16;87.78;;;54.10;;
51298;SDS011;37382;45.192;9.790;2024-02-21T10:14:46;101.75;;;64.18;;
51298;SDS011;37382;45.192;9.790;2024-02-21T10:17:17;78.85;;;49.05;;
51298;SDS011;37382;45.192;9.790;2024-02-21T10:19:46;73.07;;;46.67;;
51298;SDS011;37382;45.192;9.790;2024-02-21T10:22:15;85.63;;;49.75;;
51298;SDS011;37382;45.192;9.790;2024-02-21T10:24:42;71.07;;;47.00;;
51298;SDS011;37382;45.192;9.790;2024-02-21T10:27:10;74.78;;;47.35;;
51298;SDS011;37382;45.192;9.790;2024-02-21T10:29:40;68.47;;;46.47;;
51298;SDS011;37382;45.192;9.790;2024-02-21T10:32:12;77.88;;;48.92;;
51298;SDS011;37382;45.192;9.790;2024-02-21T10:34:41;75.25;;;47.55;;
51298;SDS011;37382;45.192;9.790;2024-02-21T10:37:11;75.75;;;47.25;;
51298;SDS011;37382;45.192;9.790;2024-02-21T10:39:40;73.00;;;44.35;;
51298;SDS011;37382;45.192;9.790;2024-02-21T10:42:10;66.07;;;41.78;;
51298;SDS011;37382;45.192;9.790;2024-02-21T10:44:39;70.10;;;44.20;;
51298;SDS011;37382;45.192;9.790;2024-02-21T10:47:10;68.65;;;41.35;;
51298;SDS011;37382;45.192;9.790;2024-02-21T10:49:41;75.72;;;41.85;;
51298;SDS011;37382;45.192;9.790;2024-02-21T10:55:03;67.40;;;42.30;;
51298;SDS011;37382;45.192;9.790;2024-02-21T10:57:34;62.55;;;41.70;;
51298;SDS011;37382;45.192;9.790;2024-02-21T11:00:03;68.45;;;43.22;;
51298;SDS011;37382;45.192;9.790;2024-02-21T11:02:35;65.57;;;41.63;;
51298;SDS011;37382;45.192;9.790;2024-02-21T11:05:03;64.40;;;38.28;;
51298;SDS011;37382;45.192;9.790;2024-02-21T11:07:32;63.03;;;41.47;;
51298;SDS011;37382;45.192;9.790;2024-02-21T11:10:04;117.55;;;66.65;;
51298;SDS011;37382;45.192;9.790;2024-02-21T11:12:34;74.03;;;46.70;;
51298;SDS011;37382;45.192;9.790;2024-02-21T11:15:05;72.72;;;47.38;;
51298;SDS011;37382;45.192;9.790;2024-02-21T11:17:33;74.00;;;45.10;;
51298;SDS011;37382;45.192;9.790;2024-02-21T11:20:13;70.45;;;45.55;;
51298;SDS011;37382;45.192;9.790;2024-02-21T11:22:42;74.47;;;44.60;;
51298;SDS011;37382;45.192;9.790;2024-02-21T11:25:10;68.03;;;43.53;;
51298;SDS011;37382;45.192;9.790;2024-02-21T11:27:46;64.68;;;42.03;;
51298;SDS011;37382;45.192;9.790;2024-02-21T11:30:14;63.78;;;42.03;;
51298;SDS011;37382;45.192;9.790;2024-02-21T11:32:43;70.65;;;43.20;;
51298;SDS011;37382;45.192;9.790;2024-02-21T11:35:10;65.55;;;43.53;;
51298;SDS011;37382;45.192;9.790;2024-02-21T11:37:47;67.35;;;44.67;;
51298;SDS011;37382;45.192;9.790;2024-02-21T11:40:14;68.50;;;44.00;;
51298;SDS011;37382;45.192;9.790;2024-02-21T11:42:42;71.45;;;45.78;;
51298;SDS011;37382;45.192;9.790;2024-02-21T11:45:09;71.10;;;45.72;;
51298;SDS011;37382;45.192;9.790;2024-02-21T11:47:38;67.57;;;45.22;;
51298;SDS011;37382;45.192;9.790;2024-02-21T11:50:11;66.57;;;44.00;;
51298;SDS011;37382;45.192;9.790;2024-02-21T11:52:41;70.15;;;44.83;;
51298;SDS011;37382;45.192;9.790;2024-02-21T11:55:09;72.53;;;47.17;;
51298;SDS011;37382;45.192;9.790;2024-02-21T11:57:37;68.50;;;48.70;;
51298;SDS011;37382;45.192;9.790;2024-02-21T12:00:19;72.78;;;48.35;;
51298;SDS011;37382;45.192;9.790;2024-02-21T12:02:47;75.18;;;49.38;;
51298;SDS011;37382;45.192;9.790;2024-02-21T12:05:18;75.35;;;46.67;;
51298;SDS011;37382;45.192;9.790;2024-02-21T12:07:46;70.03;;;48.85;;
51298;SDS011;37382;45.192;9.790;2024-02-21T12:10:13;67.43;;;44.15;;
51298;SDS011;37382;45.192;9.790;2024-02-21T12:12:41;68.28;;;44.78;;
51298;SDS011;37382;45.192;9.790;2024-02-21T12:15:08;70.20;;;43.85;;
51298;SDS011;37382;45.192;9.790;2024-02-21T12:17:36;64.95;;;43.85;;
51298;SDS011;37382;45.192;9.790;2024-02-21T12:20:05;65.80;;;42.97;;
51298;SDS011;37382;45.192;9.790;2024-02-21T12:22:43;70.80;;;44.05;;
51298;SDS011;37382;45.192;9.790;2024-02-21T12:25:17;68.03;;;45.88;;
51298;SDS011;37382;45.192;9.790;2024-02-21T12:27:46;69.00;;;45.42;;
51298;SDS011;37382;45.192;9.790;2024-02-21T12:30:14;67.32;;;43.30;;
51298;SDS011;37382;45.192;9.790;2024-02-21T12:32:41;74.80;;;51.90;;
51298;SDS011;37382;45.192;9.790;2024-02-21T12:35:09;67.68;;;42.97;;
51298;SDS011;37382;45.192;9.790;2024-02-21T12:37:37;62.00;;;41.72;;
51298;SDS011;37382;45.192;9.790;2024-02-21T12:40:08;60.88;;;40.53;;
51298;SDS011;37382;45.192;9.790;2024-02-21T12:42:37;62.30;;;40.70;;
51298;SDS011;37382;45.192;9.790;2024-02-21T12:45:05;61.85;;;41.55;;
51298;SDS011;37382;45.192;9.790;2024-02-21T12:47:33;65.90;;;42.80;;
51298;SDS011;37382;45.192;9.790;2024-02-21T12:50:00;66.55;;;43.15;;
51298;SDS011;37382;45.192;9.790;2024-02-21T12:52:30;64.68;;;42.83;;
51298;SDS011;37382;45.192;9.790;2024-02-21T12:54:58;77.40;;;43.92;;
51298;SDS011;37382;45.192;9.790;2024-02-21T12:57:26;64.65;;;42.45;;
51298;SDS011;37382;45.192;9.790;2024-02-21T12:59:54;70.80;;;46.00;;
51298;SDS011;37382;45.192;9.790;2024-02-21T13:02:22;71.32;;;47.63;;
51298;SDS011;37382;45.192;9.790;2024-02-21T13:04:49;89.45;;;57.10;;
51298;SDS011;37382;45.192;9.790;2024-02-21T13:07:17;80.45;;;45.28;;
51298;SDS011;37382;45.192;9.790;2024-02-21T13:09:45;60.42;;;38.97;;
51298;SDS011;37382;45.192;9.790;2024-02-21T13:12:12;59.38;;;38.92;;
51298;SDS011;37382;45.192;9.790;2024-02-21T13:14:40;60.58;;;42.17;;
51298;SDS011;37382;45.192;9.790;2024-02-21T13:17:10;72.35;;;52.40;;
51298;SDS011;37382;45.192;9.790;2024-02-21T13:19:38;63.13;;;42.90;;
51298;SDS011;37382;45.192;9.790;2024-02-21T13:22:05;66.32;;;41.53;;
51298;SDS011;37382;45.192;9.790;2024-02-21T13:24:34;59.97;;;40.45;;
51298;SDS011;37382;45.192;9.790;2024-02-21T13:27:01;60.78;;;41.88;;
51298;SDS011;37382;45.192;9.790;2024-02-21T13:29:30;62.95;;;41.83;;
51298;SDS011;37382;45.192;9.790;2024-02-21T13:31:57;62.65;;;42.00;;
51298;SDS011;37382;45.192;9.790;2024-02-21T13:34:25;59.75;;;41.70;;
51298;SDS011;37382;45.192;9.790;2024-02-21T13:36:53;60.15;;;41.30;;
51298;SDS011;37382;45.192;9.790;2024-02-21T13:39:20;60.00;;;40.42;;
51298;SDS011;37382;45.192;9.790;2024-02-21T13:41:48;64.40;;;39.90;;
51298;SDS011;37382;45.192;9.790;2024-02-21T13:44:16;60.88;;;42.25;;
51298;SDS011;37382;45.192;9.790;2024-02-21T13:46:44;66.05;;;41.90;;
51298;SDS011;37382;45.192;9.790;2024-02-21T13:49:11;65.63;;;44.65;;
51298;SDS011;37382;45.192;9.790;2024-02-21T13:51:39;58.90;;;41.13;;
51298;SDS011;37382;45.192;9.790;2024-02-21T13:54:08;59.45;;;41.83;;
51298;SDS011;37382;45.192;9.790;2024-02-21T13:56:36;66.35;;;41.97;;
51298;SDS011;37382;45.192;9.790;2024-02-21T13:59:04;75.30;;;50.72;;
51298;SDS011;37382;45.192;9.790;2024-02-21T14:01:32;73.97;;;46.30;;
51298;SDS011;37382;45.192;9.790;2024-02-21T14:04:00;57.88;;;40.60;;
51298;SDS011;37382;45.192;9.790;2024-02-21T14:06:27;58.28;;;40.78;;
51298;SDS011;37382;45.192;9.790;2024-02-21T14:08:55;57.90;;;39.22;;
51298;SDS011;37382;45.192;9.790;2024-02-21T14:11:22;54.08;;;38.55;;
51298;SDS011;37382;45.192;9.790;2024-02-21T14:13:50;62.33;;;41.20;;
51298;SDS011;37382;45.192;9.790;2024-02-21T14:16:18;52.97;;;39.03;;
51298;SDS011;37382;45.192;9.790;2024-02-21T14:18:45;55.20;;;38.25;;
51298;SDS011;37382;45.192;9.790;2024-02-21T14:21:13;56.10;;;38.63;;
51298;SDS011;37382;45.192;9.790;2024-02-21T14:23:40;55.75;;;39.50;;
51298;SDS011;37382;45.192;9.790;2024-02-21T14:28:45;60.83;;;42.28;;
51298;SDS011;37382;45.192;9.790;2024-02-21T14:31:13;56.50;;;41.08;;
51298;SDS011;37382;45.192;9.790;2024-02-21T14:33:41;56.63;;;39.88;;
51298;SDS011;37382;45.192;9.790;2024-02-21T14:36:09;53.67;;;38.47;;